sensor_id;sensor_type;location;lat;lon;timestamp;P1;durP1;ratioP1;P2;durP2;ratioP2
7398;SDS011;3740;50.700;7.184;2022-10-31T00:02:08;7.27;;;5.80;;
7398;SDS011;3740;50.700;7.184;2022-10-31T00:04:43;9.27;;;5.50;;
7398;SDS011;3740;50.700;7.184;2022-10-31T00:07:19;8.70;;;5.87;;
7398;SDS011;3740;50.700;7.184;2022-10-31T00:09:44;8.70;;;5.63;;
7398;SDS011;3740;50.700;7.184;2022-10-31T00:12:10;7.17;;;5.10;;
7398;SDS011;3740;50.700;7.184;2022-10-31T00:14:35;7.13;;;5.33;;
7398;SDS011;3740;50.700;7.184;2022-10-31T00:17:06;9.20;;;5.67;;
7398;SDS011;3740;50.700;7.184;2022-10-31T00:19:36;7.57;;;5.43;;
7398;SDS011;3740;50.700;7.184;2022-10-31T00:22:01;6.90;;;5.40;;
7398;SDS011;3740;50.700;7.184;2022-10-31T00:24:27;10.37;;;5.73;;
7398;SDS011;3740;50.700;7.184;2022-10-31T00:26:52;10.00;;;5.63;;
7398;SDS011;3740;50.700;7.184;2022-10-31T00:29:18;10.10;;;5.73;;
7398;SDS011;3740;50.700;7.184;2022-10-31T00:31:44;6.00;;;5.40;;
7398;SDS011;3740;50.700;7.184;2022-10-31T00:34:09;7.00;;;5.40;;
7398;SDS011;3740;50.700;7.184;2022-10-31T00:36:35;8.27;;;5.50;;
7398;SDS011;3740;50.700;7.184;2022-10-31T00:39:00;9.07;;;4.90;;
7398;SDS011;3740;50.700;7.184;2022-10-31T00:41:26;8.40;;;5.30;;
7398;SDS011;3740;50.700;7.184;2022-10-31T00:43:52;6.73;;;4.90;;
7398;SDS011;3740;50.700;7.184;2022-10-31T00:46:17;8.07;;;5.10;;
7398;SDS011;3740;50.700;7.184;2022-10-31T00:48:43;8.10;;;5.27;;
7398;SDS011;3740;50.700;7.184;2022-10-31T00:51:08;8.37;;;5.43;;
7398;SDS011;3740;50.700;7.184;2022-10-31T00:53:34;10.67;;;5.63;;
7398;SDS011;3740;50.700;7.184;2022-10-31T00:56:00;10.37;;;5.70;;
7398;SDS011;3740;50.700;7.184;2022-10-31T00:58:26;6.87;;;5.73;;
7398;SDS011;3740;50.700;7.184;2022-10-31T01:00:51;10.23;;;5.50;;
7398;SDS011;3740;50.700;7.184;2022-10-31T01:03:21;9.17;;;5.87;;
7398;SDS011;3740;50.700;7.184;2022-10-31T01:08:23;6.07;;;5.27;;
7398;SDS011;3740;50.700;7.184;2022-10-31T01:10:59;8.13;;;5.50;;
7398;SDS011;3740;50.700;7.184;2022-10-31T01:13:26;6.47;;;5.47;;
7398;SDS011;3740;50.700;7.184;2022-10-31T01:15:55;6.90;;;4.80;;
7398;SDS011;3740;50.700;7.184;2022-10-31T01:18:21;10.00;;;5.60;;
7398;SDS011;3740;50.700;7.184;2022-10-31T01:20:47;8.77;;;4.80;;
7398;SDS011;3740;50.700;7.184;2022-10-31T01:23:32;8.17;;;5.73;;
7398;SDS011;3740;50.700;7.184;2022-10-31T01:26:03;7.43;;;5.33;;
7398;SDS011;3740;50.700;7.184;2022-10-31T01:28:31;6.00;;;4.90;;
7398;SDS011;3740;50.700;7.184;2022-10-31T01:30:59;7.87;;;5.27;;
7398;SDS011;3740;50.700;7.184;2022-10-31T01:33:30;9.83;;;5.67;;
7398;SDS011;3740;50.700;7.184;2022-10-31T01:35:57;8.67;;;5.33;;
7398;SDS011;3740;50.700;7.184;2022-10-31T01:38:22;8.53;;;5.50;;
7398;SDS011;3740;50.700;7.184;2022-10-31T01:40:49;6.97;;;5.47;;
7398;SDS011;3740;50.700;7.184;2022-10-31T01:43:15;7.53;;;5.93;;
7398;SDS011;3740;50.700;7.184;2022-10-31T01:45:41;8.30;;;5.43;;
7398;SDS011;3740;50.700;7.184;2022-10-31T01:48:15;6.57;;;5.43;;
7398;SDS011;3740;50.700;7.184;2022-10-31T01:50:44;6.17;;;5.43;;
7398;SDS011;3740;50.700;7.184;2022-10-31T01:53:13;8.83;;;5.27;;
7398;SDS011;3740;50.700;7.184;2022-10-31T01:55:41;7.10;;;5.20;;
7398;SDS011;3740;50.700;7.184;2022-10-31T01:58:14;7.07;;;5.10;;
7398;SDS011;3740;50.700;7.184;2022-10-31T02:00:45;8.03;;;5.40;;
7398;SDS011;3740;50.700;7.184;2022-10-31T02:03:14;7.20;;;5.30;;
7398;SDS011;3740;50.700;7.184;2022-10-31T02:05:41;6.70;;;5.17;;
7398;SDS011;3740;50.700;7.184;2022-10-31T02:08:18;7.57;;;4.83;;
7398;SDS011;3740;50.700;7.184;2022-10-31T02:10:50;7.60;;;5.30;;
7398;SDS011;3740;50.700;7.184;2022-10-31T02:13:15;7.63;;;5.20;;
7398;SDS011;3740;50.700;7.184;2022-10-31T02:15:42;6.30;;;5.13;;
7398;SDS011;3740;50.700;7.184;2022-10-31T02:18:10;8.57;;;5.60;;
7398;SDS011;3740;50.700;7.184;2022-10-31T02:20:40;7.03;;;5.20;;
7398;SDS011;3740;50.700;7.184;2022-10-31T02:32:15;7.53;;;5.60;;
7398;SDS011;3740;50.700;7.184;2022-10-31T02:35:07;8.57;;;5.40;;
7398;SDS011;3740;50.700;7.184;2022-10-31T02:37:57;6.13;;;5.53;;
7398;SDS011;3740;50.700;7.184;2022-10-31T02:40:39;9.10;;;5.60;;
7398;SDS011;3740;50.700;7.184;2022-10-31T02:43:20;7.13;;;5.30;;
7398;SDS011;3740;50.700;7.184;2022-10-31T02:45:57;5.90;;;5.30;;
7398;SDS011;3740;50.700;7.184;2022-10-31T02:48:27;7.03;;;5.57;;
7398;SDS011;3740;50.700;7.184;2022-10-31T02:50:56;7.53;;;5.73;;
7398;SDS011;3740;50.700;7.184;2022-10-31T02:53:24;7.90;;;5.63;;
7398;SDS011;3740;50.700;7.184;2022-10-31T02:55:58;9.30;;;5.53;;
7398;SDS011;3740;50.700;7.184;2022-10-31T02:58:27;7.00;;;5.57;;
7398;SDS011;3740;50.700;7.184;2022-10-31T03:01:09;7.50;;;5.13;;
7398;SDS011;3740;50.700;7.184;2022-10-31T03:06:47;9.37;;;5.67;;
7398;SDS011;3740;50.700;7.184;2022-10-31T03:12:25;9.67;;;6.00;;
7398;SDS011;3740;50.700;7.184;2022-10-31T03:18:01;7.60;;;5.77;;
7398;SDS011;3740;50.700;7.184;2022-10-31T03:20:52;8.43;;;5.63;;
7398;SDS011;3740;50.700;7.184;2022-10-31T03:23:23;8.03;;;5.47;;
7398;SDS011;3740;50.700;7.184;2022-10-31T03:25:50;7.80;;;5.47;;
7398;SDS011;3740;50.700;7.184;2022-10-31T03:28:19;7.23;;;5.77;;
7398;SDS011;3740;50.700;7.184;2022-10-31T03:30:51;8.63;;;5.90;;
7398;SDS011;3740;50.700;7.184;2022-10-31T03:33:21;6.37;;;5.47;;
7398;SDS011;3740;50.700;7.184;2022-10-31T03:35:51;8.97;;;6.77;;
7398;SDS011;3740;50.700;7.184;2022-10-31T03:38:21;8.80;;;6.43;;
7398;SDS011;3740;50.700;7.184;2022-10-31T03:40:47;8.77;;;6.60;;
7398;SDS011;3740;50.700;7.184;2022-10-31T03:43:16;8.03;;;6.53;;
7398;SDS011;3740;50.700;7.184;2022-10-31T03:45:48;9.17;;;6.77;;
7398;SDS011;3740;50.700;7.184;2022-10-31T03:48:14;7.17;;;6.33;;
7398;SDS011;3740;50.700;7.184;2022-10-31T03:53:30;7.30;;;6.47;;
7398;SDS011;3740;50.700;7.184;2022-10-31T03:56:09;8.80;;;6.90;;
7398;SDS011;3740;50.700;7.184;2022-10-31T03:58:48;8.20;;;6.83;;
7398;SDS011;3740;50.700;7.184;2022-10-31T04:01:51;10.37;;;6.70;;
7398;SDS011;3740;50.700;7.184;2022-10-31T04:04:22;8.70;;;6.30;;
7398;SDS011;3740;50.700;7.184;2022-10-31T04:06:51;11.60;;;7.03;;
7398;SDS011;3740;50.700;7.184;2022-10-31T04:09:19;7.53;;;6.13;;
7398;SDS011;3740;50.700;7.184;2022-10-31T04:11:47;6.60;;;5.70;;
7398;SDS011;3740;50.700;7.184;2022-10-31T04:14:16;8.50;;;6.33;;
7398;SDS011;3740;50.700;7.184;2022-10-31T04:16:42;8.37;;;5.83;;
7398;SDS011;3740;50.700;7.184;2022-10-31T04:19:09;7.23;;;5.90;;
7398;SDS011;3740;50.700;7.184;2022-10-31T04:21:37;7.70;;;6.13;;
7398;SDS011;3740;50.700;7.184;2022-10-31T04:24:02;6.10;;;5.50;;
7398;SDS011;3740;50.700;7.184;2022-10-31T04:26:28;9.67;;;6.07;;
7398;SDS011;3740;50.700;7.184;2022-10-31T04:28:53;8.33;;;6.50;;
7398;SDS011;3740;50.700;7.184;2022-10-31T04:31:20;7.70;;;5.33;;
7398;SDS011;3740;50.700;7.184;2022-10-31T04:33:45;7.20;;;5.63;;
7398;SDS011;3740;50.700;7.184;2022-10-31T04:36:11;8.13;;;5.87;;
7398;SDS011;3740;50.700;7.184;2022-10-31T04:38:37;9.63;;;6.40;;
7398;SDS011;3740;50.700;7.184;2022-10-31T04:41:02;8.63;;;5.47;;
7398;SDS011;3740;50.700;7.184;2022-10-31T04:43:28;9.97;;;5.67;;
7398;SDS011;3740;50.700;7.184;2022-10-31T04:45:53;6.97;;;5.80;;
7398;SDS011;3740;50.700;7.184;2022-10-31T04:48:19;6.13;;;5.47;;
7398;SDS011;3740;50.700;7.184;2022-10-31T04:50:44;7.17;;;5.30;;
7398;SDS011;3740;50.700;7.184;2022-10-31T04:53:10;7.70;;;5.30;;
7398;SDS011;3740;50.700;7.184;2022-10-31T04:55:36;7.37;;;5.30;;
7398;SDS011;3740;50.700;7.184;2022-10-31T04:58:01;7.93;;;5.63;;
7398;SDS011;3740;50.700;7.184;2022-10-31T05:00:27;8.63;;;5.83;;
7398;SDS011;3740;50.700;7.184;2022-10-31T05:02:54;7.60;;;5.80;;
7398;SDS011;3740;50.700;7.184;2022-10-31T05:05:22;8.40;;;6.23;;
7398;SDS011;3740;50.700;7.184;2022-10-31T05:07:49;8.53;;;6.00;;
7398;SDS011;3740;50.700;7.184;2022-10-31T05:10:20;7.67;;;5.63;;
7398;SDS011;3740;50.700;7.184;2022-10-31T05:12:57;7.20;;;5.77;;
7398;SDS011;3740;50.700;7.184;2022-10-31T05:15:24;7.40;;;5.43;;
7398;SDS011;3740;50.700;7.184;2022-10-31T05:17:51;7.67;;;5.90;;
7398;SDS011;3740;50.700;7.184;2022-10-31T05:20:18;8.60;;;6.50;;
7398;SDS011;3740;50.700;7.184;2022-10-31T05:22:51;8.07;;;6.07;;
7398;SDS011;3740;50.700;7.184;2022-10-31T05:25:18;7.97;;;6.50;;
7398;SDS011;3740;50.700;7.184;2022-10-31T05:27:46;7.03;;;5.90;;
7398;SDS011;3740;50.700;7.184;2022-10-31T05:30:14;8.57;;;6.30;;
7398;SDS011;3740;50.700;7.184;2022-10-31T05:32:44;12.17;;;6.73;;
7398;SDS011;3740;50.700;7.184;2022-10-31T05:35:11;7.70;;;6.30;;
7398;SDS011;3740;50.700;7.184;2022-10-31T05:37:39;7.40;;;6.00;;
7398;SDS011;3740;50.700;7.184;2022-10-31T05:40:06;8.80;;;6.17;;
7398;SDS011;3740;50.700;7.184;2022-10-31T05:42:34;8.83;;;7.27;;
7398;SDS011;3740;50.700;7.184;2022-10-31T05:45:00;11.40;;;6.73;;
7398;SDS011;3740;50.700;7.184;2022-10-31T05:47:30;9.77;;;6.83;;
7398;SDS011;3740;50.700;7.184;2022-10-31T05:49:55;9.93;;;7.30;;
7398;SDS011;3740;50.700;7.184;2022-10-31T05:52:30;10.17;;;8.20;;
7398;SDS011;3740;50.700;7.184;2022-10-31T05:54:55;11.30;;;8.13;;
7398;SDS011;3740;50.700;7.184;2022-10-31T05:57:21;8.77;;;7.87;;
7398;SDS011;3740;50.700;7.184;2022-10-31T05:59:46;9.50;;;7.73;;
7398;SDS011;3740;50.700;7.184;2022-10-31T06:02:12;11.10;;;7.83;;
7398;SDS011;3740;50.700;7.184;2022-10-31T06:04:38;8.83;;;7.83;;
7398;SDS011;3740;50.700;7.184;2022-10-31T06:07:03;8.10;;;6.83;;
7398;SDS011;3740;50.700;7.184;2022-10-31T06:09:30;10.50;;;7.10;;
7398;SDS011;3740;50.700;7.184;2022-10-31T06:11:56;8.97;;;7.27;;
7398;SDS011;3740;50.700;7.184;2022-10-31T06:14:21;8.60;;;7.27;;
7398;SDS011;3740;50.700;7.184;2022-10-31T06:16:47;10.70;;;7.73;;
7398;SDS011;3740;50.700;7.184;2022-10-31T06:19:12;11.23;;;8.83;;
7398;SDS011;3740;50.700;7.184;2022-10-31T06:21:38;12.00;;;9.30;;
7398;SDS011;3740;50.700;7.184;2022-10-31T06:24:04;13.27;;;9.70;;
7398;SDS011;3740;50.700;7.184;2022-10-31T06:26:29;13.13;;;9.60;;
7398;SDS011;3740;50.700;7.184;2022-10-31T06:28:55;11.53;;;9.27;;
7398;SDS011;3740;50.700;7.184;2022-10-31T06:31:21;11.27;;;9.23;;
7398;SDS011;3740;50.700;7.184;2022-10-31T06:33:46;10.77;;;9.67;;
7398;SDS011;3740;50.700;7.184;2022-10-31T06:36:12;11.17;;;10.07;;
7398;SDS011;3740;50.700;7.184;2022-10-31T06:38:37;10.93;;;9.43;;
7398;SDS011;3740;50.700;7.184;2022-10-31T06:41:03;11.10;;;9.03;;
7398;SDS011;3740;50.700;7.184;2022-10-31T06:43:30;10.07;;;9.07;;
7398;SDS011;3740;50.700;7.184;2022-10-31T06:45:56;10.37;;;8.83;;
7398;SDS011;3740;50.700;7.184;2022-10-31T06:48:22;10.93;;;8.53;;
7398;SDS011;3740;50.700;7.184;2022-10-31T06:50:47;10.60;;;8.20;;
7398;SDS011;3740;50.700;7.184;2022-10-31T06:53:13;10.80;;;8.10;;
7398;SDS011;3740;50.700;7.184;2022-10-31T06:55:39;10.07;;;7.90;;
7398;SDS011;3740;50.700;7.184;2022-10-31T06:58:06;9.33;;;7.93;;
7398;SDS011;3740;50.700;7.184;2022-10-31T07:00:33;9.23;;;8.20;;
7398;SDS011;3740;50.700;7.184;2022-10-31T07:02:59;8.37;;;7.20;;
7398;SDS011;3740;50.700;7.184;2022-10-31T07:05:30;10.27;;;7.70;;
7398;SDS011;3740;50.700;7.184;2022-10-31T07:07:57;7.80;;;7.00;;
7398;SDS011;3740;50.700;7.184;2022-10-31T07:10:29;8.43;;;7.43;;
7398;SDS011;3740;50.700;7.184;2022-10-31T07:13:00;10.83;;;7.13;;
7398;SDS011;3740;50.700;7.184;2022-10-31T07:15:27;7.80;;;7.00;;
7398;SDS011;3740;50.700;7.184;2022-10-31T07:17:59;8.53;;;7.67;;
7398;SDS011;3740;50.700;7.184;2022-10-31T07:20:26;10.60;;;8.33;;
7398;SDS011;3740;50.700;7.184;2022-10-31T07:23:00;11.87;;;8.80;;
7398;SDS011;3740;50.700;7.184;2022-10-31T07:25:26;13.50;;;9.70;;
7398;SDS011;3740;50.700;7.184;2022-10-31T07:27:52;12.80;;;9.23;;
7398;SDS011;3740;50.700;7.184;2022-10-31T07:30:17;11.73;;;9.17;;
7398;SDS011;3740;50.700;7.184;2022-10-31T07:32:44;10.60;;;9.13;;
7398;SDS011;3740;50.700;7.184;2022-10-31T07:35:20;13.20;;;9.50;;
7398;SDS011;3740;50.700;7.184;2022-10-31T07:37:48;11.73;;;9.43;;
7398;SDS011;3740;50.700;7.184;2022-10-31T07:40:14;12.53;;;9.70;;
7398;SDS011;3740;50.700;7.184;2022-10-31T07:42:41;10.37;;;9.10;;
7398;SDS011;3740;50.700;7.184;2022-10-31T07:45:09;13.73;;;10.30;;
7398;SDS011;3740;50.700;7.184;2022-10-31T07:50:05;14.77;;;10.07;;
7398;SDS011;3740;50.700;7.184;2022-10-31T07:52:30;11.33;;;9.50;;
7398;SDS011;3740;50.700;7.184;2022-10-31T07:54:56;11.77;;;9.90;;
7398;SDS011;3740;50.700;7.184;2022-10-31T07:57:22;12.83;;;9.60;;
7398;SDS011;3740;50.700;7.184;2022-10-31T07:59:47;13.23;;;10.63;;
7398;SDS011;3740;50.700;7.184;2022-10-31T08:02:13;14.23;;;9.87;;
7398;SDS011;3740;50.700;7.184;2022-10-31T08:04:38;11.07;;;9.43;;
7398;SDS011;3740;50.700;7.184;2022-10-31T08:07:05;11.57;;;9.30;;
7398;SDS011;3740;50.700;7.184;2022-10-31T08:09:31;11.43;;;9.67;;
7398;SDS011;3740;50.700;7.184;2022-10-31T08:11:57;12.73;;;9.93;;
7398;SDS011;3740;50.700;7.184;2022-10-31T08:14:22;12.40;;;9.40;;
7398;SDS011;3740;50.700;7.184;2022-10-31T08:16:48;15.07;;;10.50;;
7398;SDS011;3740;50.700;7.184;2022-10-31T08:19:14;13.97;;;10.30;;
7398;SDS011;3740;50.700;7.184;2022-10-31T08:21:39;14.10;;;9.73;;
7398;SDS011;3740;50.700;7.184;2022-10-31T08:24:05;15.27;;;10.93;;
7398;SDS011;3740;50.700;7.184;2022-10-31T08:26:30;14.80;;;10.90;;
7398;SDS011;3740;50.700;7.184;2022-10-31T08:28:56;12.63;;;10.67;;
7398;SDS011;3740;50.700;7.184;2022-10-31T08:31:22;12.90;;;10.47;;
7398;SDS011;3740;50.700;7.184;2022-10-31T08:33:48;13.80;;;9.83;;
7398;SDS011;3740;50.700;7.184;2022-10-31T08:36:14;13.33;;;9.70;;
7398;SDS011;3740;50.700;7.184;2022-10-31T08:38:39;12.20;;;10.47;;
7398;SDS011;3740;50.700;7.184;2022-10-31T08:41:05;15.60;;;9.87;;
7398;SDS011;3740;50.700;7.184;2022-10-31T08:43:31;12.57;;;9.60;;
7398;SDS011;3740;50.700;7.184;2022-10-31T08:45:56;11.43;;;9.67;;
7398;SDS011;3740;50.700;7.184;2022-10-31T08:48:22;14.77;;;11.07;;
7398;SDS011;3740;50.700;7.184;2022-10-31T08:50:47;14.47;;;10.67;;
7398;SDS011;3740;50.700;7.184;2022-10-31T08:53:19;11.93;;;10.00;;
7398;SDS011;3740;50.700;7.184;2022-10-31T08:55:45;11.43;;;10.23;;
7398;SDS011;3740;50.700;7.184;2022-10-31T08:58:17;12.03;;;10.10;;
7398;SDS011;3740;50.700;7.184;2022-10-31T09:00:45;11.53;;;9.20;;
7398;SDS011;3740;50.700;7.184;2022-10-31T09:03:13;11.23;;;9.43;;
7398;SDS011;3740;50.700;7.184;2022-10-31T09:05:41;12.60;;;9.97;;
7398;SDS011;3740;50.700;7.184;2022-10-31T09:08:07;14.03;;;9.80;;
7398;SDS011;3740;50.700;7.184;2022-10-31T09:10:34;11.73;;;9.70;;
7398;SDS011;3740;50.700;7.184;2022-10-31T09:13:05;12.73;;;10.20;;
7398;SDS011;3740;50.700;7.184;2022-10-31T09:15:32;14.13;;;10.73;;
7398;SDS011;3740;50.700;7.184;2022-10-31T09:17:59;11.27;;;9.53;;
7398;SDS011;3740;50.700;7.184;2022-10-31T09:20:25;16.03;;;11.80;;
7398;SDS011;3740;50.700;7.184;2022-10-31T09:22:55;15.07;;;12.27;;
7398;SDS011;3740;50.700;7.184;2022-10-31T09:25:22;15.17;;;12.23;;
7398;SDS011;3740;50.700;7.184;2022-10-31T09:27:47;14.47;;;11.63;;
7398;SDS011;3740;50.700;7.184;2022-10-31T09:30:13;12.87;;;11.00;;
7398;SDS011;3740;50.700;7.184;2022-10-31T09:32:39;12.83;;;11.00;;
7398;SDS011;3740;50.700;7.184;2022-10-31T09:35:04;14.70;;;12.33;;
7398;SDS011;3740;50.700;7.184;2022-10-31T09:37:30;11.43;;;10.13;;
7398;SDS011;3740;50.700;7.184;2022-10-31T09:39:57;10.70;;;9.50;;
7398;SDS011;3740;50.700;7.184;2022-10-31T09:50:41;12.77;;;10.25;;
7398;SDS011;3740;50.700;7.184;2022-10-31T09:55:59;10.73;;;8.65;;
7398;SDS011;3740;50.700;7.184;2022-10-31T09:58:27;13.48;;;8.85;;
7398;SDS011;3740;50.700;7.184;2022-10-31T10:00:56;9.57;;;8.55;;
7398;SDS011;3740;50.700;7.184;2022-10-31T10:06:14;9.77;;;8.77;;
7398;SDS011;3740;50.700;7.184;2022-10-31T10:08:48;10.25;;;9.10;;
7398;SDS011;3740;50.700;7.184;2022-10-31T10:14:21;9.43;;;8.30;;
7398;SDS011;3740;50.700;7.184;2022-10-31T10:17:21;10.90;;;8.38;;
7398;SDS011;3740;50.700;7.184;2022-10-31T10:23:10;11.13;;;8.38;;
7398;SDS011;3740;50.700;7.184;2022-10-31T10:25:40;12.10;;;8.32;;
7398;SDS011;3740;50.700;7.184;2022-10-31T10:31:14;9.02;;;8.07;;
7398;SDS011;3740;50.700;7.184;2022-10-31T10:33:58;8.43;;;6.85;;
7398;SDS011;3740;50.700;7.184;2022-10-31T10:36:39;8.02;;;6.63;;
7398;SDS011;3740;50.700;7.184;2022-10-31T10:41:48;8.00;;;6.65;;
7398;SDS011;3740;50.700;7.184;2022-10-31T10:44:33;7.75;;;6.45;;
7398;SDS011;3740;50.700;7.184;2022-10-31T10:47:21;9.48;;;7.00;;
7398;SDS011;3740;50.700;7.184;2022-10-31T10:50:06;8.52;;;7.13;;
7398;SDS011;3740;50.700;7.184;2022-10-31T10:52:46;12.05;;;8.63;;
7398;SDS011;3740;50.700;7.184;2022-10-31T10:55:16;13.13;;;9.43;;
7398;SDS011;3740;50.700;7.184;2022-10-31T10:58:07;13.00;;;8.75;;
7398;SDS011;3740;50.700;7.184;2022-10-31T11:00:36;9.05;;;7.95;;
7398;SDS011;3740;50.700;7.184;2022-10-31T11:03:05;11.02;;;7.88;;
7398;SDS011;3740;50.700;7.184;2022-10-31T11:05:39;9.02;;;8.00;;
7398;SDS011;3740;50.700;7.184;2022-10-31T11:08:25;9.32;;;7.45;;
7398;SDS011;3740;50.700;7.184;2022-10-31T11:10:57;8.20;;;7.40;;
7398;SDS011;3740;50.700;7.184;2022-10-31T11:13:26;8.77;;;7.88;;
7398;SDS011;3740;50.700;7.184;2022-10-31T11:18:41;9.80;;;8.02;;
7398;SDS011;3740;50.700;7.184;2022-10-31T11:21:28;9.52;;;7.82;;
7398;SDS011;3740;50.700;7.184;2022-10-31T11:26:35;10.00;;;8.75;;
7398;SDS011;3740;50.700;7.184;2022-10-31T11:29:03;10.88;;;9.05;;
7398;SDS011;3740;50.700;7.184;2022-10-31T11:31:30;9.95;;;7.70;;
7398;SDS011;3740;50.700;7.184;2022-10-31T11:34:00;9.43;;;8.23;;
7398;SDS011;3740;50.700;7.184;2022-10-31T11:36:29;9.13;;;7.78;;
7398;SDS011;3740;50.700;7.184;2022-10-31T11:38:57;8.68;;;7.68;;
7398;SDS011;3740;50.700;7.184;2022-10-31T11:43:57;9.38;;;7.43;;
7398;SDS011;3740;50.700;7.184;2022-10-31T11:48:59;7.50;;;6.38;;
7398;SDS011;3740;50.700;7.184;2022-10-31T11:51:30;6.65;;;5.93;;
7398;SDS011;3740;50.700;7.184;2022-10-31T11:53:58;9.95;;;6.20;;
7398;SDS011;3740;50.700;7.184;2022-10-31T11:56:27;7.15;;;5.93;;
7398;SDS011;3740;50.700;7.184;2022-10-31T11:59:03;7.50;;;5.65;;
7398;SDS011;3740;50.700;7.184;2022-10-31T12:01:32;6.82;;;6.13;;
7398;SDS011;3740;50.700;7.184;2022-10-31T12:06:37;8.93;;;6.22;;
7398;SDS011;3740;50.700;7.184;2022-10-31T12:09:18;7.88;;;6.10;;
7398;SDS011;3740;50.700;7.184;2022-10-31T12:14:41;8.77;;;6.43;;
7398;SDS011;3740;50.700;7.184;2022-10-31T12:23:21;7.78;;;5.90;;
7398;SDS011;3740;50.700;7.184;2022-10-31T12:36:58;9.02;;;6.10;;
7398;SDS011;3740;50.700;7.184;2022-10-31T12:39:47;8.55;;;6.10;;
7398;SDS011;3740;50.700;7.184;2022-10-31T12:47:47;6.47;;;5.40;;
7398;SDS011;3740;50.700;7.184;2022-10-31T12:53:17;8.82;;;5.60;;
7398;SDS011;3740;50.700;7.184;2022-10-31T13:02:15;8.50;;;6.07;;
7398;SDS011;3740;50.700;7.184;2022-10-31T13:07:16;6.78;;;5.70;;
7398;SDS011;3740;50.700;7.184;2022-10-31T13:12:37;10.20;;;6.38;;
7398;SDS011;3740;50.700;7.184;2022-10-31T13:15:11;8.50;;;6.13;;
7398;SDS011;3740;50.700;7.184;2022-10-31T13:17:42;9.13;;;5.88;;
7398;SDS011;3740;50.700;7.184;2022-10-31T13:20:25;9.23;;;6.13;;
7398;SDS011;3740;50.700;7.184;2022-10-31T13:22:56;6.95;;;5.78;;
7398;SDS011;3740;50.700;7.184;2022-10-31T13:25:39;8.75;;;5.95;;
7398;SDS011;3740;50.700;7.184;2022-10-31T13:30:40;7.72;;;6.90;;
7398;SDS011;3740;50.700;7.184;2022-10-31T13:33:11;9.43;;;6.72;;
7398;SDS011;3740;50.700;7.184;2022-10-31T13:35:54;9.82;;;6.47;;
7398;SDS011;3740;50.700;7.184;2022-10-31T13:41:11;10.68;;;6.10;;
7398;SDS011;3740;50.700;7.184;2022-10-31T13:46:50;9.50;;;6.30;;
7398;SDS011;3740;50.700;7.184;2022-10-31T13:54:40;7.45;;;5.80;;
7398;SDS011;3740;50.700;7.184;2022-10-31T13:59:56;7.15;;;5.72;;
7398;SDS011;3740;50.700;7.184;2022-10-31T14:02:29;6.93;;;5.40;;
7398;SDS011;3740;50.700;7.184;2022-10-31T14:04:58;8.45;;;5.82;;
7398;SDS011;3740;50.700;7.184;2022-10-31T14:07:30;8.40;;;5.75;;
7398;SDS011;3740;50.700;7.184;2022-10-31T14:12:45;8.27;;;5.35;;
7398;SDS011;3740;50.700;7.184;2022-10-31T14:17:52;9.00;;;5.60;;
7398;SDS011;3740;50.700;7.184;2022-10-31T14:20:25;8.23;;;5.85;;
7398;SDS011;3740;50.700;7.184;2022-10-31T14:22:58;9.38;;;5.78;;
7398;SDS011;3740;50.700;7.184;2022-10-31T14:27:58;9.68;;;6.05;;
7398;SDS011;3740;50.700;7.184;2022-10-31T14:30:26;7.75;;;5.47;;
7398;SDS011;3740;50.700;7.184;2022-10-31T14:33:02;8.07;;;5.45;;
7398;SDS011;3740;50.700;7.184;2022-10-31T14:35:46;13.95;;;6.40;;
7398;SDS011;3740;50.700;7.184;2022-10-31T14:41:29;6.60;;;5.32;;
7398;SDS011;3740;50.700;7.184;2022-10-31T14:49:46;5.85;;;5.07;;
7398;SDS011;3740;50.700;7.184;2022-10-31T14:52:23;6.80;;;4.95;;
7398;SDS011;3740;50.700;7.184;2022-10-31T14:54:51;6.85;;;5.47;;
7398;SDS011;3740;50.700;7.184;2022-10-31T14:57:23;7.80;;;5.47;;
7398;SDS011;3740;50.700;7.184;2022-10-31T14:59:55;8.68;;;6.22;;
7398;SDS011;3740;50.700;7.184;2022-10-31T15:02:35;6.57;;;5.25;;
7398;SDS011;3740;50.700;7.184;2022-10-31T15:05:09;7.68;;;5.68;;
7398;SDS011;3740;50.700;7.184;2022-10-31T15:07:36;9.30;;;6.05;;
7398;SDS011;3740;50.700;7.184;2022-10-31T15:10:26;9.68;;;5.72;;
7398;SDS011;3740;50.700;7.184;2022-10-31T15:12:55;9.93;;;6.10;;
7398;SDS011;3740;50.700;7.184;2022-10-31T15:15:27;7.75;;;6.05;;
7398;SDS011;3740;50.700;7.184;2022-10-31T15:17:57;8.27;;;5.65;;
7398;SDS011;3740;50.700;7.184;2022-10-31T15:20:25;6.35;;;5.40;;
7398;SDS011;3740;50.700;7.184;2022-10-31T15:22:54;7.32;;;5.47;;
7398;SDS011;3740;50.700;7.184;2022-10-31T15:25:23;8.35;;;6.18;;
7398;SDS011;3740;50.700;7.184;2022-10-31T15:27:51;6.85;;;5.43;;
7398;SDS011;3740;50.700;7.184;2022-10-31T15:30:21;7.63;;;5.57;;
7398;SDS011;3740;50.700;7.184;2022-10-31T15:32:49;7.97;;;4.90;;
7398;SDS011;3740;50.700;7.184;2022-10-31T15:35:19;7.78;;;5.45;;
7398;SDS011;3740;50.700;7.184;2022-10-31T15:37:47;7.15;;;5.45;;
7398;SDS011;3740;50.700;7.184;2022-10-31T15:40:14;9.40;;;6.10;;
7398;SDS011;3740;50.700;7.184;2022-10-31T15:42:41;9.95;;;6.13;;
7398;SDS011;3740;50.700;7.184;2022-10-31T15:47:37;8.95;;;5.30;;
7398;SDS011;3740;50.700;7.184;2022-10-31T15:50:05;5.60;;;4.90;;
7398;SDS011;3740;50.700;7.184;2022-10-31T15:52:44;7.25;;;5.32;;
7398;SDS011;3740;50.700;7.184;2022-10-31T15:55:16;5.80;;;4.80;;
7398;SDS011;3740;50.700;7.184;2022-10-31T15:57:46;6.70;;;4.93;;
7398;SDS011;3740;50.700;7.184;2022-10-31T16:03:30;5.97;;;4.90;;
7398;SDS011;3740;50.700;7.184;2022-10-31T16:05:54;8.80;;;5.47;;
7398;SDS011;3740;50.700;7.184;2022-10-31T16:11:39;8.15;;;5.85;;
7398;SDS011;3740;50.700;7.184;2022-10-31T16:14:28;10.30;;;5.72;;
7398;SDS011;3740;50.700;7.184;2022-10-31T16:16:39;7.55;;;5.65;;
7398;SDS011;3740;50.700;7.184;2022-10-31T16:19:12;6.57;;;5.35;;
7398;SDS011;3740;50.700;7.184;2022-10-31T16:21:51;9.20;;;5.57;;
7398;SDS011;3740;50.700;7.184;2022-10-31T16:24:30;5.03;;;4.53;;
7398;SDS011;3740;50.700;7.184;2022-10-31T16:27:04;7.63;;;5.20;;
7398;SDS011;3740;50.700;7.184;2022-10-31T16:29:44;7.35;;;5.47;;
7398;SDS011;3740;50.700;7.184;2022-10-31T16:35:17;5.85;;;5.18;;
7398;SDS011;3740;50.700;7.184;2022-10-31T16:37:44;7.57;;;5.40;;
7398;SDS011;3740;50.700;7.184;2022-10-31T16:40:10;9.68;;;5.22;;
7398;SDS011;3740;50.700;7.184;2022-10-31T16:42:38;8.60;;;5.45;;
7398;SDS011;3740;50.700;7.184;2022-10-31T16:45:06;10.57;;;5.60;;
7398;SDS011;3740;50.700;7.184;2022-10-31T16:47:33;8.13;;;5.53;;
7398;SDS011;3740;50.700;7.184;2022-10-31T16:49:58;6.63;;;5.28;;
7398;SDS011;3740;50.700;7.184;2022-10-31T16:52:25;7.38;;;5.38;;
7398;SDS011;3740;50.700;7.184;2022-10-31T16:54:51;8.82;;;5.72;;
7398;SDS011;3740;50.700;7.184;2022-10-31T16:57:21;7.32;;;5.40;;
7398;SDS011;3740;50.700;7.184;2022-10-31T16:59:52;11.63;;;5.88;;
7398;SDS011;3740;50.700;7.184;2022-10-31T17:02:21;7.63;;;5.57;;
7398;SDS011;3740;50.700;7.184;2022-10-31T17:04:48;6.87;;;5.43;;
7398;SDS011;3740;50.700;7.184;2022-10-31T17:07:14;12.70;;;6.00;;
7398;SDS011;3740;50.700;7.184;2022-10-31T17:09:40;9.40;;;6.10;;
7398;SDS011;3740;50.700;7.184;2022-10-31T17:12:06;8.95;;;5.50;;
7398;SDS011;3740;50.700;7.184;2022-10-31T17:14:38;8.30;;;5.77;;
7398;SDS011;3740;50.700;7.184;2022-10-31T17:17:04;9.50;;;6.40;;
7398;SDS011;3740;50.700;7.184;2022-10-31T17:19:29;10.77;;;5.65;;
7398;SDS011;3740;50.700;7.184;2022-10-31T17:21:55;6.63;;;5.93;;
7398;SDS011;3740;50.700;7.184;2022-10-31T17:24:20;9.70;;;6.03;;
7398;SDS011;3740;50.700;7.184;2022-10-31T17:26:46;8.30;;;5.97;;
7398;SDS011;3740;50.700;7.184;2022-10-31T17:29:12;7.77;;;5.17;;
7398;SDS011;3740;50.700;7.184;2022-10-31T17:31:37;9.00;;;6.30;;
7398;SDS011;3740;50.700;7.184;2022-10-31T17:34:03;7.03;;;5.77;;
7398;SDS011;3740;50.700;7.184;2022-10-31T17:36:30;8.82;;;6.18;;
7398;SDS011;3740;50.700;7.184;2022-10-31T17:38:56;7.70;;;5.73;;
7398;SDS011;3740;50.700;7.184;2022-10-31T17:41:22;9.23;;;5.80;;
7398;SDS011;3740;50.700;7.184;2022-10-31T17:43:47;9.43;;;5.93;;
7398;SDS011;3740;50.700;7.184;2022-10-31T17:46:13;7.90;;;5.67;;
7398;SDS011;3740;50.700;7.184;2022-10-31T17:48:39;9.43;;;6.05;;
7398;SDS011;3740;50.700;7.184;2022-10-31T17:51:05;11.32;;;6.00;;
7398;SDS011;3740;50.700;7.184;2022-10-31T17:53:32;8.35;;;6.03;;
7398;SDS011;3740;50.700;7.184;2022-10-31T17:55:59;7.93;;;6.00;;